createdAt,value
2018-04-12T00:00:53.404Z,69.00
2018-04-12T00:03:21.135Z,67.20
2018-04-12T00:05:48.925Z,68.00
2018-04-12T00:08:16.648Z,67.60
2018-04-12T00:10:45.217Z,68.90
2018-04-12T00:13:12.953Z,68.70
2018-04-12T00:15:40.720Z,66.30
2018-04-12T00:18:08.523Z,70.50
2018-04-12T00:20:36.237Z,69.70
2018-04-12T00:23:04.000Z,66.70
2018-04-12T00:25:31.960Z,68.30
2018-04-12T00:27:59.721Z,67.70
2018-04-12T00:30:27.510Z,68.60
2018-04-12T00:32:55.275Z,68.00
2018-04-12T00:35:23.013Z,68.70
2018-04-12T00:37:51.509Z,67.00
2018-04-12T00:40:19.227Z,67.00
2018-04-12T00:42:46.965Z,68.80
2018-04-12T00:45:15.096Z,68.00
2018-04-12T00:47:42.881Z,67.20
2018-04-12T00:50:10.590Z,66.60
2018-04-12T00:52:38.370Z,68.50
2018-04-12T00:55:06.172Z,65.00
2018-04-12T00:57:33.949Z,66.40
2018-04-12T01:00:01.692Z,69.60
2018-04-12T01:02:29.428Z,66.50
2018-04-12T01:04:57.220Z,67.30
2018-04-12T01:07:25.001Z,66.60
2018-04-12T01:09:52.752Z,67.60
2018-04-12T01:12:20.559Z,66.60
2018-04-12T01:14:48.346Z,67.90
2018-04-12T01:17:16.138Z,69.30
2018-04-12T01:19:43.858Z,67.30
2018-04-12T01:22:11.585Z,67.20
2018-04-12T01:24:39.327Z,66.00
2018-04-12T01:27:07.050Z,65.80
2018-04-12T01:29:34.777Z,66.00
2018-04-12T01:32:02.650Z,66.10
2018-04-12T01:34:30.363Z,68.30
2018-04-12T01:36:58.089Z,69.30
2018-04-12T01:39:27.280Z,66.30
2018-04-12T01:41:55.075Z,66.20
2018-04-12T01:44:22.841Z,66.20
2018-04-12T01:46:51.000Z,66.00
2018-04-12T01:49:19.561Z,67.00
2018-04-12T01:51:47.281Z,66.90
2018-04-12T01:54:15.415Z,67.10
2018-04-12T01:56:43.236Z,71.00
2018-04-12T01:59:10.967Z,67.30
2018-04-12T02:01:39.320Z,66.60
2018-04-12T02:04:07.033Z,67.60
2018-04-12T02:06:34.852Z,67.10
2018-04-12T02:09:02.635Z,67.20
2018-04-12T02:11:30.401Z,67.40
2018-04-12T02:13:58.154Z,70.90
2018-04-12T02:16:25.873Z,67.10
2018-04-12T02:18:53.636Z,69.80
2018-04-12T02:21:21.425Z,67.10
2018-04-12T02:23:49.160Z,66.30
2018-04-12T02:26:16.928Z,67.90
2018-04-12T02:28:44.648Z,66.70
2018-04-12T02:31:12.385Z,67.50
2018-04-12T02:33:40.104Z,66.90
2018-04-12T02:36:08.595Z,69.00
2018-04-12T02:38:36.382Z,68.80
2018-04-12T02:41:04.117Z,69.10
2018-04-12T02:43:31.891Z,67.20
2018-04-12T02:45:59.675Z,67.60
2018-04-12T02:48:27.548Z,66.90
2018-04-12T02:50:55.324Z,67.10
2018-04-12T02:53:23.516Z,68.60
2018-04-12T02:55:51.241Z,71.30
2018-04-12T02:58:19.795Z,66.50
2018-04-12T03:00:48.179Z,66.50
2018-04-12T03:03:15.896Z,66.70
2018-04-12T03:05:43.675Z,67.30
2018-04-12T03:08:11.452Z,67.80
2018-04-12T03:10:39.241Z,68.10
2018-04-12T03:13:06.961Z,67.80
2018-04-12T03:15:34.685Z,68.20
2018-04-12T03:18:02.387Z,68.40
2018-04-12T03:20:30.100Z,68.60
2018-04-12T03:22:57.879Z,69.00
2018-04-12T03:25:25.660Z,68.60
2018-04-12T03:27:54.135Z,68.70
2018-04-12T03:30:21.835Z,68.70
2018-04-12T03:32:49.604Z,69.00
2018-04-12T03:35:17.385Z,69.00
2018-04-12T03:37:45.261Z,69.20
2018-04-12T03:40:12.991Z,69.50
2018-04-12T03:42:41.482Z,69.70
2018-04-12T03:45:09.199Z,69.60
2018-04-12T03:47:36.985Z,69.70
2018-04-12T03:50:04.817Z,69.60
2018-04-12T03:52:32.580Z,69.60
2018-04-12T03:55:00.303Z,69.50
2018-04-12T03:57:28.035Z,69.50
2018-04-12T03:59:55.820Z,69.70
2018-04-12T04:02:23.582Z,69.80
2018-04-12T04:04:51.460Z,69.70
2018-04-12T04:07:22.993Z,69.90
2018-04-12T04:09:50.839Z,69.80
2018-04-12T04:12:18.607Z,69.80
2018-04-12T04:28:13.803Z,68.80
2018-04-12T04:30:41.578Z,69.10
2018-04-12T04:33:09.360Z,70.00
2018-04-12T04:35:37.149Z,69.70
2018-04-12T04:38:04.932Z,69.40
2018-04-12T04:40:33.528Z,69.20
2018-04-12T04:43:01.329Z,69.00
2018-04-12T04:45:30.020Z,69.10
2018-04-12T04:47:57.809Z,69.30
2018-04-12T04:50:25.624Z,69.20
2018-04-12T04:52:53.353Z,68.80
2018-04-12T04:55:21.140Z,69.30
2018-04-12T04:57:49.764Z,67.90
2018-04-12T05:00:17.590Z,67.70
2018-04-12T05:02:46.136Z,67.40
2018-04-12T05:05:13.984Z,67.40
2018-04-12T05:07:41.759Z,67.60
2018-04-12T05:10:09.561Z,67.90
2018-04-12T05:12:37.451Z,68.60
2018-04-12T05:15:05.193Z,68.00
2018-04-12T05:17:32.996Z,68.30
2018-04-12T05:20:00.777Z,68.40
2018-04-12T05:22:28.582Z,67.30
2018-04-12T05:24:56.351Z,67.50
2018-04-12T05:27:24.074Z,68.40
2018-04-12T05:29:51.836Z,67.80
2018-04-12T05:32:19.641Z,66.90
2018-04-12T05:34:47.517Z,67.40
2018-04-12T05:37:15.413Z,67.10
2018-04-12T05:39:43.285Z,67.40
2018-04-12T05:42:11.006Z,67.70
2018-04-12T05:44:38.803Z,67.80
2018-04-12T05:47:06.582Z,67.90
2018-04-12T05:49:34.370Z,68.00
2018-04-12T05:52:02.956Z,71.10
2018-04-12T05:54:30.692Z,71.10
2018-04-12T05:56:58.434Z,69.00
2018-04-12T05:59:26.230Z,68.10
2018-04-12T06:01:54.006Z,67.80
2018-04-12T06:04:21.783Z,67.40
2018-04-12T06:06:49.514Z,67.10
2018-04-12T06:09:17.307Z,68.40
2018-04-12T06:11:45.045Z,66.50
2018-04-12T06:14:12.835Z,65.80
2018-04-12T06:16:40.555Z,64.70
2018-04-12T06:19:08.367Z,64.50
2018-04-12T06:21:36.167Z,63.90
2018-04-12T06:24:03.933Z,63.80
2018-04-12T06:26:31.712Z,62.60
2018-04-12T06:28:59.479Z,62.60
2018-04-12T06:31:27.182Z,62.20
2018-04-12T06:33:55.017Z,61.10
2018-04-12T06:36:22.760Z,63.50
2018-04-12T06:38:50.487Z,63.10
2018-04-12T06:41:18.438Z,61.70
2018-04-12T06:43:46.225Z,61.00
2018-04-12T06:46:13.957Z,60.60
2018-04-12T06:48:41.676Z,60.20
2018-04-12T06:51:09.396Z,60.30
2018-04-12T06:53:37.131Z,60.10
2018-04-12T06:56:04.920Z,61.80
2018-04-12T06:58:32.638Z,60.90
2018-04-12T07:01:00.360Z,60.50
2018-04-12T07:03:28.085Z,60.50
2018-04-12T07:05:55.851Z,59.80
2018-04-12T07:08:23.572Z,59.90
2018-04-12T07:10:51.380Z,60.10
2018-04-12T07:13:19.102Z,58.70
2018-04-12T07:15:46.831Z,58.60
2018-04-12T07:18:14.772Z,58.40
2018-04-12T07:20:43.307Z,56.80
2018-04-12T07:23:11.071Z,56.80
2018-04-12T07:25:38.845Z,57.80
2018-04-12T07:28:06.573Z,58.30
2018-04-12T07:30:35.068Z,56.40
2018-04-12T07:33:02.836Z,56.30
2018-04-12T07:35:30.598Z,56.50
2018-04-12T07:37:58.321Z,56.20
2018-04-12T07:40:26.142Z,54.70
2018-04-12T07:42:54.024Z,54.20
2018-04-12T07:45:21.806Z,53.20
2018-04-12T07:47:49.612Z,53.10
2018-04-12T07:50:18.101Z,56.00
2018-04-12T07:52:45.815Z,56.00
2018-04-12T07:55:13.955Z,52.30
2018-04-12T07:57:41.768Z,51.00
2018-04-12T08:00:09.533Z,52.60
2018-04-12T08:02:37.307Z,51.70
2018-04-12T08:05:05.028Z,51.50
2018-04-12T08:07:32.813Z,51.70
2018-04-12T08:10:00.594Z,52.50
2018-04-12T08:12:28.419Z,51.60
2018-04-12T08:14:56.240Z,51.30
2018-04-12T08:17:24.044Z,52.10
2018-04-12T08:19:52.634Z,53.30
2018-04-12T08:22:20.407Z,53.20
2018-04-12T08:24:48.208Z,54.10
2018-04-12T08:27:15.939Z,55.20
2018-04-12T08:29:43.713Z,55.50
2018-04-12T08:32:11.441Z,55.40
2018-04-12T08:34:39.247Z,53.80
2018-04-12T08:37:06.969Z,55.00
2018-04-12T08:39:34.761Z,53.80
2018-04-12T08:42:02.557Z,53.50
2018-04-12T08:44:30.336Z,54.40
2018-04-12T08:46:58.140Z,53.60
2018-04-12T08:49:25.935Z,53.50
2018-04-12T08:51:54.531Z,51.10
2018-04-12T08:54:22.385Z,51.00
2018-04-12T08:56:50.891Z,51.80
2018-04-12T08:59:18.710Z,51.70
2018-04-12T09:01:46.489Z,52.20
2018-04-12T09:04:14.284Z,52.30
2018-04-12T09:06:42.091Z,50.80
2018-04-12T09:09:09.901Z,51.20
2018-04-12T09:11:37.607Z,51.00
2018-04-12T09:14:05.381Z,50.20
2018-04-12T09:16:33.164Z,50.00
2018-04-12T09:19:00.928Z,50.40
2018-04-12T09:21:28.674Z,51.30
2018-04-12T09:23:56.414Z,49.40
2018-04-12T09:26:24.152Z,49.30
2018-04-12T09:28:51.978Z,49.10
2018-04-12T09:31:19.759Z,48.60
2018-04-12T09:33:47.472Z,50.10
2018-04-12T09:36:15.996Z,50.50
2018-04-12T09:38:43.703Z,50.40
2018-04-12T09:41:11.443Z,49.20
2018-04-12T09:43:39.185Z,48.90
2018-04-12T09:46:06.963Z,48.90
2018-04-12T09:48:34.783Z,48.10
2018-04-12T09:51:02.516Z,47.50
2018-04-12T09:53:30.310Z,53.80
2018-04-12T09:55:58.275Z,58.80
2018-04-12T09:58:26.009Z,60.70
2018-04-12T10:00:56.537Z,61.70
2018-04-12T10:03:24.265Z,60.90
2018-04-12T10:05:57.522Z,61.10
2018-04-12T10:08:28.183Z,59.40
2018-04-12T10:10:55.954Z,60.10
2018-04-12T10:13:23.702Z,59.90
2018-04-12T10:15:51.450Z,59.70
2018-04-12T10:18:19.180Z,63.60
2018-04-12T10:20:46.984Z,65.00
2018-04-12T10:23:14.709Z,65.50
2018-04-12T10:25:42.442Z,65.80
2018-04-12T10:28:10.237Z,66.50
2018-04-12T10:30:38.029Z,67.50
2018-04-12T10:33:05.867Z,67.60
2018-04-12T10:35:33.671Z,67.60
2018-04-12T10:38:01.461Z,67.40
2018-04-12T10:40:29.244Z,66.80
2018-04-12T10:42:57.036Z,65.90
2018-04-12T10:45:25.579Z,66.10
2018-04-12T10:47:53.300Z,66.10
2018-04-12T10:50:21.028Z,65.40
2018-04-12T10:52:48.781Z,65.40
2018-04-12T10:55:16.612Z,66.00
2018-04-12T10:57:44.923Z,66.70
2018-04-12T11:00:12.694Z,66.80
2018-04-12T11:02:40.423Z,66.20
2018-04-12T11:05:08.186Z,66.70
2018-04-12T11:07:35.909Z,66.40
2018-04-12T11:10:03.760Z,66.50
2018-04-12T11:12:31.517Z,66.40
2018-04-12T11:14:59.257Z,65.60
2018-04-12T11:17:27.039Z,65.00
2018-04-12T11:19:54.834Z,64.20
2018-04-12T11:22:22.567Z,64.70
2018-04-12T11:24:50.367Z,65.20
2018-04-12T11:27:18.131Z,65.50
2018-04-12T11:29:45.902Z,66.00
2018-04-12T11:32:13.654Z,65.60
2018-04-12T11:34:41.465Z,65.40
2018-04-12T11:37:09.329Z,64.20
2018-04-12T11:39:37.134Z,64.40
2018-04-12T11:42:04.904Z,65.00
2018-04-12T11:44:32.767Z,65.80
2018-04-12T11:47:00.630Z,66.50
2018-04-12T11:49:28.421Z,64.20
2018-04-12T11:51:56.333Z,64.00
2018-04-12T11:54:26.252Z,63.40
2018-04-12T11:56:54.627Z,63.30
2018-04-12T11:59:24.448Z,63.00
2018-04-12T12:01:53.215Z,61.60
2018-04-12T12:04:21.725Z,61.50
2018-04-12T12:06:51.241Z,61.70
2018-04-12T12:09:19.120Z,61.10
2018-04-12T12:11:48.107Z,62.70
2018-04-12T12:14:17.598Z,61.80
2018-04-12T12:16:46.835Z,61.40
2018-04-12T12:19:15.528Z,60.90
2018-04-12T12:21:45.704Z,60.60
2018-04-12T12:24:14.503Z,63.90
2018-04-12T12:26:42.679Z,62.00
2018-04-12T12:29:11.293Z,59.60
2018-04-12T12:31:40.822Z,59.40
2018-04-12T12:34:09.055Z,62.20
2018-04-12T12:36:37.269Z,64.40
2018-04-12T12:39:06.704Z,65.40
2018-04-12T12:41:35.280Z,65.10
2018-04-12T12:44:03.917Z,58.00
2018-04-12T12:46:34.567Z,57.90
2018-04-12T12:49:03.360Z,64.90
2018-04-12T12:51:32.475Z,65.20
2018-04-12T12:54:01.477Z,58.70
2018-04-12T12:56:29.833Z,61.00
2018-04-12T12:58:57.863Z,57.40
2018-04-12T13:01:26.788Z,56.50
2018-04-12T13:03:55.924Z,57.60
2018-04-12T13:06:24.733Z,57.10
2018-04-12T13:08:53.703Z,57.70
2018-04-12T13:11:23.831Z,63.00
2018-04-12T13:13:52.278Z,64.10
2018-04-12T13:16:20.940Z,63.40
2018-04-12T13:18:49.801Z,63.40
2018-04-12T13:21:17.722Z,63.60
2018-04-12T13:23:46.320Z,58.70
2018-04-12T13:26:14.316Z,58.60
2018-04-12T13:28:42.138Z,64.30
2018-04-12T13:31:09.989Z,62.70
2018-04-12T13:33:37.869Z,63.50
2018-04-12T13:36:05.659Z,64.50
2018-04-12T13:38:33.408Z,63.70
2018-04-12T13:41:01.660Z,64.50
2018-04-12T13:46:43.333Z,63.00
2018-04-12T13:49:11.079Z,64.00
2018-04-12T13:51:39.734Z,63.30
2018-04-12T13:54:07.499Z,63.20
2018-04-12T13:56:35.262Z,63.40
2018-04-12T13:59:03.799Z,63.00
2018-04-12T14:01:31.831Z,62.90
2018-04-12T14:03:59.596Z,62.90
2018-04-12T14:06:27.308Z,62.50
2018-04-12T14:08:55.096Z,62.50
2018-04-12T14:11:22.886Z,61.60
2018-04-12T14:13:50.625Z,60.10
2018-04-12T14:16:18.439Z,60.70
2018-04-12T14:18:46.208Z,61.20
2018-04-12T14:21:15.905Z,60.50
2018-04-12T14:23:43.652Z,55.50
2018-04-12T14:28:50.640Z,56.40
2018-04-12T14:31:18.465Z,53.60
2018-04-12T14:33:48.250Z,58.20
2018-04-12T14:36:18.145Z,58.20
2018-04-12T14:38:46.043Z,59.50
2018-04-12T14:41:14.729Z,59.80
2018-04-12T14:43:43.367Z,59.70
2018-04-12T14:46:11.098Z,59.60
2018-04-12T14:48:38.959Z,59.80
2018-04-12T14:51:06.831Z,60.10
2018-04-12T14:57:07.834Z,60.10
2018-04-12T14:59:35.549Z,60.10
2018-04-12T15:02:03.638Z,60.10
2018-04-12T15:04:31.401Z,59.90
2018-04-12T15:06:59.266Z,59.80
2018-04-12T15:09:27.015Z,59.70
2018-04-12T15:11:54.876Z,60.70
2018-04-12T15:14:22.644Z,60.30
2018-04-12T15:16:52.360Z,60.10
2018-04-12T15:19:20.115Z,60.10
2018-04-12T15:21:47.900Z,60.50
2018-04-12T15:24:15.732Z,60.00
2018-04-12T15:26:43.557Z,60.90
2018-04-12T15:29:11.404Z,57.80
2018-04-12T15:31:39.201Z,59.70
2018-04-12T15:34:07.058Z,59.20
2018-04-12T15:36:34.845Z,61.10
2018-04-12T15:39:02.566Z,60.30
2018-04-12T15:41:30.404Z,61.20
2018-04-12T15:43:58.456Z,61.10
2018-04-12T15:46:26.408Z,58.00
2018-04-12T15:48:55.036Z,60.80
2018-04-12T15:51:22.797Z,60.70
2018-04-12T15:53:50.551Z,59.10
2018-04-12T15:56:19.193Z,58.80
2018-04-12T15:58:47.019Z,58.70
2018-04-12T16:01:15.876Z,55.30
2018-04-12T16:03:43.834Z,56.60
2018-04-12T16:06:11.721Z,57.20
2018-04-12T16:08:39.670Z,59.10
2018-04-12T16:11:08.887Z,56.00
2018-04-12T16:13:37.392Z,55.30
2018-04-12T16:16:05.229Z,55.10
2018-04-12T16:18:32.980Z,59.00
2018-04-12T16:21:00.764Z,59.70
2018-04-12T16:23:30.664Z,56.90
2018-04-12T16:25:58.436Z,59.80
2018-04-12T16:28:26.238Z,58.20
2018-04-12T16:30:54.002Z,52.80
2018-04-12T16:33:21.825Z,57.10
2018-04-12T16:35:49.608Z,53.60
2018-04-12T16:38:17.390Z,50.20
2018-04-12T16:40:45.197Z,50.20
2018-04-12T16:43:12.949Z,51.90
2018-04-12T16:45:40.786Z,51.10
2018-04-12T16:48:08.576Z,49.60
2018-04-12T16:50:36.389Z,54.60
2018-04-12T16:53:04.264Z,49.80
2018-04-12T16:55:32.349Z,50.10
2018-04-12T16:58:01.815Z,51.50
2018-04-12T17:00:29.613Z,51.10
2018-04-12T17:02:57.497Z,51.30
2018-04-12T17:05:25.810Z,50.50
2018-04-12T17:07:53.636Z,50.80
2018-04-12T17:10:21.682Z,52.40
2018-04-12T17:12:49.426Z,50.80
2018-04-12T17:15:18.585Z,50.70
2018-04-12T17:17:47.052Z,50.60
2018-04-12T17:20:14.871Z,50.80
2018-04-12T17:22:43.474Z,50.20
2018-04-12T17:25:13.003Z,50.10
2018-04-12T17:27:40.811Z,50.10
2018-04-12T17:30:08.558Z,50.50
2018-04-12T17:32:36.651Z,50.10
2018-04-12T17:35:09.817Z,50.40
2018-04-12T17:37:37.639Z,50.10
2018-04-12T17:40:05.534Z,50.70
2018-04-12T17:42:33.279Z,50.60
2018-04-12T17:45:01.169Z,50.80
2018-04-12T17:47:28.955Z,51.40
2018-04-12T17:49:56.720Z,52.10
2018-04-12T17:52:24.449Z,52.00
2018-04-12T17:54:52.196Z,52.10
2018-04-12T17:57:19.911Z,51.90
2018-04-12T17:59:47.822Z,52.10
2018-04-12T18:02:15.641Z,53.20
2018-04-12T18:04:44.591Z,52.60
2018-04-12T18:07:12.775Z,52.10
2018-04-12T18:09:40.546Z,52.10
2018-04-12T18:12:08.260Z,53.10
2018-04-12T18:14:35.985Z,52.60
2018-04-12T18:17:03.795Z,52.50
2018-04-12T18:19:31.792Z,52.70
2018-04-12T18:21:59.867Z,52.90
2018-04-12T18:24:28.512Z,53.50
2018-04-12T18:26:57.221Z,52.30
2018-04-12T18:29:25.414Z,53.10
2018-04-12T18:31:57.390Z,52.80
2018-04-12T18:34:25.271Z,52.80
2018-04-12T18:36:53.183Z,52.90
2018-04-12T18:39:20.973Z,52.80
2018-04-12T18:41:50.345Z,53.20
2018-04-12T18:44:18.125Z,53.20
2018-04-12T18:46:45.926Z,53.10
2018-04-12T18:49:13.788Z,52.80
2018-04-12T18:51:41.796Z,53.70
2018-04-12T18:54:16.883Z,54.60
2018-04-12T18:56:44.786Z,54.50
2018-04-12T18:59:12.600Z,54.10
2018-04-12T19:01:40.402Z,53.90
2018-04-12T19:04:08.123Z,53.60
2018-04-12T19:06:35.862Z,53.40
2018-04-12T19:09:06.610Z,53.80
2018-04-12T19:11:35.513Z,54.10
2018-04-12T19:14:09.272Z,53.50
2018-04-12T19:16:37.810Z,53.50
2018-04-12T19:19:07.983Z,53.60
2018-04-12T19:21:36.273Z,53.60
2018-04-12T19:24:05.705Z,54.10
2018-04-12T19:26:36.079Z,54.50
2018-04-12T19:29:05.424Z,53.90
2018-04-12T19:31:34.276Z,54.20
2018-04-12T19:34:03.435Z,53.80
2018-04-12T19:36:32.019Z,53.50
2018-04-12T19:38:59.981Z,53.80
2018-04-12T19:41:29.114Z,53.90
2018-04-12T19:43:57.573Z,53.80
2018-04-12T19:46:26.524Z,54.40
2018-04-12T19:48:56.013Z,54.40
2018-04-12T19:51:23.912Z,53.70
2018-04-12T19:53:52.939Z,53.80
2018-04-12T19:56:21.685Z,54.30
2018-04-12T19:58:50.983Z,54.40
2018-04-12T20:01:20.635Z,55.40
2018-04-12T20:03:49.965Z,55.30
2018-04-12T20:06:17.859Z,54.80
2018-04-12T20:08:45.689Z,56.70
2018-04-12T20:11:13.950Z,55.10
2018-04-12T20:13:41.695Z,55.30
2018-04-12T20:16:09.443Z,55.50
2018-04-12T20:18:37.208Z,55.80
2018-04-12T20:21:05.203Z,56.30
2018-04-12T20:23:33.069Z,56.60
2018-04-12T20:26:00.847Z,56.90
2018-04-12T20:28:29.992Z,57.10
2018-04-12T20:30:57.845Z,56.90
2018-04-12T20:33:25.685Z,56.90
2018-04-12T20:35:54.044Z,57.10
2018-04-12T20:38:21.821Z,57.30
2018-04-12T20:40:49.572Z,57.10
2018-04-12T20:43:17.370Z,57.10
2018-04-12T20:45:45.906Z,57.50
2018-04-12T20:50:46.449Z,57.30
2018-04-12T20:53:14.178Z,57.30
2018-04-12T20:55:41.983Z,57.50
2018-04-12T20:58:09.670Z,57.60
2018-04-12T21:00:37.383Z,57.50
2018-04-12T21:03:05.895Z,57.50
2018-04-12T21:05:33.658Z,57.50
2018-04-12T21:08:01.406Z,57.80
2018-04-12T21:10:29.166Z,57.90
2018-04-12T21:12:56.869Z,57.90
2018-04-12T21:15:24.554Z,58.10
2018-04-12T21:17:52.236Z,58.10
2018-04-12T21:20:19.955Z,58.00
2018-04-12T21:22:47.685Z,58.10
2018-04-12T21:25:16.150Z,58.00
2018-04-12T21:27:43.888Z,58.00
2018-04-12T21:30:11.645Z,58.10
2018-04-12T21:32:39.340Z,57.90
2018-04-12T21:35:07.071Z,57.90
2018-04-12T21:37:34.826Z,58.00
2018-04-12T21:40:02.493Z,58.20
2018-04-12T21:42:30.262Z,58.20
2018-04-12T21:44:57.933Z,58.20
2018-04-12T21:47:25.697Z,57.90
2018-04-12T21:49:53.448Z,57.40
2018-04-12T21:52:22.123Z,57.00
2018-04-12T21:54:49.855Z,56.80
2018-04-12T21:57:17.631Z,57.00
2018-04-12T21:59:46.159Z,57.00
2018-04-12T22:02:13.855Z,57.40
2018-04-12T22:04:41.578Z,57.00
2018-04-12T22:07:09.309Z,56.70
2018-04-12T22:09:36.993Z,55.80
2018-04-12T22:12:04.753Z,54.50
2018-04-12T22:14:32.499Z,54.00
2018-04-12T22:17:00.209Z,52.40
2018-04-12T22:19:27.888Z,52.70
2018-04-12T22:21:55.565Z,52.60
2018-04-12T22:24:23.309Z,52.70
2018-04-12T22:26:51.089Z,52.20
2018-04-12T22:29:18.842Z,51.80
2018-04-12T22:31:47.339Z,51.70
2018-04-12T22:34:15.080Z,51.70
2018-04-12T22:36:43.860Z,52.00
2018-04-12T22:39:11.594Z,52.00
2018-04-12T22:41:39.267Z,51.70
2018-04-12T22:44:07.001Z,51.50
2018-04-12T22:46:34.663Z,51.40
2018-04-12T22:49:02.377Z,51.20
2018-04-12T22:51:30.095Z,50.60
2018-04-12T22:53:57.777Z,50.80
2018-04-12T22:56:25.520Z,50.60
2018-04-12T22:58:53.244Z,50.80
2018-04-12T23:01:20.983Z,50.50
2018-04-12T23:03:48.713Z,50.90
2018-04-12T23:06:16.463Z,50.90
2018-04-12T23:08:44.191Z,51.10
2018-04-12T23:11:11.876Z,51.30
2018-04-12T23:13:39.601Z,51.50
2018-04-12T23:16:07.353Z,51.70
2018-04-12T23:18:35.046Z,51.80
2018-04-12T23:21:02.806Z,51.30
2018-04-12T23:23:30.540Z,51.10
2018-04-12T23:25:58.213Z,50.80
2018-04-12T23:28:25.957Z,50.40
2018-04-12T23:30:54.471Z,49.70
2018-04-12T23:33:22.172Z,49.70
2018-04-12T23:35:49.953Z,49.90
2018-04-12T23:38:17.621Z,50.10
2018-04-12T23:40:45.309Z,50.30
2018-04-12T23:43:12.982Z,50.10
2018-04-12T23:45:40.671Z,50.10
2018-04-12T23:48:08.397Z,50.20
2018-04-12T23:50:36.092Z,50.60
2018-04-12T23:53:03.825Z,50.40
2018-04-12T23:55:32.372Z,50.90
2018-04-12T23:58:00.193Z,50.80
